Time;durP1;ratioP1;P1;durP2;ratioP2;P2;SDS_P1;SDS_P2;PMS_P1;PMS_P2;Temp;Humidity;BMP_temperature;BMP_pressure;BME280_temperature;BME280_humidity;BME280_pressure;Samples;Min_cycle;Max_cycle;Signal;HPM_P1;HPM_P2
2023/03/20 00:02:23;;;;;;;2.75;1.55;;;;;;;8.07;87.51;102061.06;5035460;27;96658;-31
2023/03/20 00:04:49;;;;;;;2.38;1.40;;;;;;;8.11;87.44;102038.47;5034171;28;96828;-31
2023/03/20 00:07:14;;;;;;;3.72;1.38;;;;;;;8.05;87.48;102041.34;5034635;27;99443;-29
2023/03/20 00:09:41;;;;;;;3.88;1.42;;;;;;;8.03;87.53;102048.59;5035117;27;99752;-30
2023/03/20 00:12:13;;;;;;;3.95;2.00;;;;;;;7.98;87.12;102055.97;5035349;27;96464;-29
2023/03/20 00:14:39;;;;;;;3.58;1.92;;;;;;;7.98;87.38;102061.34;5034141;28;96666;-30
2023/03/20 00:17:12;;;;;;;4.85;1.80;;;;;;;7.98;87.25;102058.66;5033774;28;99999;-29
2023/03/20 00:19:37;;;;;;;3.17;1.48;;;;;;;7.91;87.15;102060.66;5033803;28;101362;-30
2023/03/20 00:22:03;;;;;;;3.03;1.73;;;;;;;7.90;87.57;102076.91;5034985;27;96770;-30
2023/03/20 00:24:28;;;;;;;3.72;1.95;;;;;;;7.86;87.61;102077.00;5034972;28;96842;-30
2023/03/20 00:26:53;;;;;;;1.92;1.23;;;;;;;7.88;87.75;102080.53;5034234;27;104123;-29
2023/03/20 00:29:25;;;;;;;2.05;1.35;;;;;;;7.88;87.71;102090.44;5034791;28;98387;-29
2023/03/20 00:31:52;;;;;;;3.50;2.13;;;;;;;7.87;87.77;102100.34;5033357;28;96775;-30
2023/03/20 00:34:20;;;;;;;5.53;1.67;;;;;;;7.91;87.70;102114.59;5033462;28;96763;-30
2023/03/20 00:36:46;;;;;;;3.40;1.92;;;;;;;7.88;87.62;102095.81;5033551;28;99018;-29
2023/03/20 00:39:12;;;;;;;2.80;1.33;;;;;;;7.87;87.70;102083.28;5034972;27;97763;-30
2023/03/20 00:41:37;;;;;;;1.73;1.13;;;;;;;7.85;87.62;102071.66;5035327;27;96536;-29
2023/03/20 00:44:26;;;;;;;4.05;1.88;;;;;;;7.82;87.68;102069.06;5035248;28;96771;-31
2023/03/20 00:46:58;;;;;;;2.60;1.50;;;;;;;7.80;87.72;102074.50;5033392;28;99159;-29
2023/03/20 00:49:29;;;;;;;2.72;1.42;;;;;;;7.82;87.75;102079.84;5033677;28;101012;-30
2023/03/20 00:51:55;;;;;;;4.65;1.70;;;;;;;7.81;88.15;102078.94;5035040;27;96440;-32
2023/03/20 00:54:21;;;;;;;2.80;1.73;;;;;;;7.75;87.94;102079.13;5033519;28;96885;-29
2023/03/20 00:57:14;;;;;;;4.32;1.52;;;;;;;7.81;87.80;102070.84;5034283;27;97980;-30
2023/03/20 01:00:06;;;;;;;3.38;1.65;;;;;;;7.77;87.58;102060.19;5029999;28;97305;-29
2023/03/20 01:02:32;;;;;;;2.45;1.50;;;;;;;7.74;87.39;102055.78;5032475;28;96818;-29
2023/03/20 01:04:58;;;;;;;2.78;1.75;;;;;;;7.66;87.62;102049.75;5033462;28;96909;-29
2023/03/20 01:07:23;;;;;;;3.10;1.73;;;;;;;7.64;87.44;102041.69;5032886;28;98160;-31
2023/03/20 01:09:49;;;;;;;4.32;1.73;;;;;;;7.65;87.77;102043.47;5034344;27;97817;-30
2023/03/20 01:12:16;;;;;;;3.03;1.50;;;;;;;7.67;87.55;102046.09;5034538;27;96543;-29
2023/03/20 01:14:42;;;;;;;3.08;1.23;;;;;;;7.62;87.29;102046.25;5033587;28;96779;-30
2023/03/20 01:17:18;;;;;;;5.63;2.08;;;;;;;7.53;87.04;102034.84;5034434;27;97926;-29
2023/03/20 01:19:43;;;;;;;2.53;1.80;;;;;;;7.50;87.26;102046.63;5032880;28;100979;-29
2023/03/20 01:22:09;;;;;;;3.75;1.75;;;;;;;7.51;87.72;102045.69;5032630;28;96541;-30
2023/03/20 01:24:34;;;;;;;1.95;1.42;;;;;;;7.55;87.65;102057.25;5034214;27;96925;-30
2023/03/20 01:27:02;;;;;;;4.90;1.98;;;;;;;7.58;87.16;102079.66;5033279;27;102733;-29
2023/03/20 01:29:29;;;;;;;1.80;1.00;;;;;;;7.54;87.01;102088.75;5032571;28;100862;-30
2023/03/20 01:31:55;;;;;;;2.95;1.52;;;;;;;7.58;87.34;102087.72;5034404;27;96619;-29
2023/03/20 01:34:21;;;;;;;3.38;1.92;;;;;;;7.60;87.32;102095.75;5033943;27;96844;-31
2023/03/20 01:36:53;;;;;;;2.60;1.80;;;;;;;7.62;87.30;102113.66;5037397;28;97889;-30
2023/03/20 01:39:23;;;;;;;3.03;1.45;;;;;;;7.62;87.21;102115.47;5036472;28;101218;-29
2023/03/20 01:41:51;;;;;;;4.07;1.73;;;;;;;7.57;86.97;102106.63;5037840;27;96642;-29
2023/03/20 01:44:27;;;;;;;4.28;1.70;;;;;;;7.54;86.77;102113.00;5036385;28;96813;-29
2023/03/20 01:46:52;;;;;;;3.15;2.05;;;;;;;7.49;87.01;102104.16;5035555;28;101582;-29
2023/03/20 01:49:18;;;;;;;4.70;2.30;;;;;;;7.42;87.13;102100.75;5037103;28;99216;-30
2023/03/20 01:51:43;;;;;;;2.95;1.85;;;;;;;7.36;87.08;102098.22;5037889;28;97064;-31
2023/03/20 01:54:18;;;;;;;3.70;1.65;;;;;;;7.35;87.22;102099.16;5037472;27;96720;-29
2023/03/20 01:56:48;;;;;;;2.03;1.45;;;;;;;7.37;87.64;102096.44;5035941;28;101178;-30
2023/03/20 01:59:20;;;;;;;3.95;2.30;;;;;;;7.35;87.13;102088.38;5037499;27;97914;-31
2023/03/20 02:01:45;;;;;;;3.03;1.83;;;;;;;7.34;87.30;102086.63;5036091;28;96528;-29
2023/03/20 02:04:12;;;;;;;2.58;1.55;;;;;;;7.32;86.97;102075.00;5037901;27;96754;-31
2023/03/20 02:06:39;;;;;;;4.05;2.10;;;;;;;7.30;87.23;102092.16;5035858;28;101026;-30
2023/03/20 02:09:04;;;;;;;3.40;2.03;;;;;;;7.27;86.93;102086.81;5035711;28;100921;-29
2023/03/20 02:11:29;;;;;;;2.75;1.55;;;;;;;7.30;87.36;102084.06;5037054;27;96578;-30
2023/03/20 02:13:58;;;;;;;6.28;2.08;;;;;;;7.33;87.15;102083.97;5037398;27;96729;-31
2023/03/20 02:16:24;;;;;;;2.72;2.17;;;;;;;7.26;86.86;102071.59;5035665;28;101263;-30
2023/03/20 02:18:51;;;;;;;3.33;1.67;;;;;;;7.27;86.91;102070.66;5035723;28;100825;-29
2023/03/20 02:21:32;;;;;;;3.55;1.30;;;;;;;7.27;87.13;102065.25;5035962;28;96497;-30
2023/03/20 02:24:28;;;;;;;2.15;1.23;;;;;;;7.25;87.19;102051.84;5037491;27;96734;-29
2023/03/20 02:27:18;;;;;;;2.63;1.60;;;;;;;7.24;87.08;102050.06;5035896;28;99314;-29
2023/03/20 02:30:25;;;;;;;3.03;1.80;;;;;;;7.21;87.03;102052.84;5035990;28;99147;-32
2023/03/20 02:33:09;;;;;;;1.60;1.27;;;;;;;7.21;87.30;102047.47;5014965;28;96865;-29
2023/03/20 02:35:55;;;;;;;2.08;1.42;;;;;;;7.19;87.01;102033.16;5037136;27;96551;-29
2023/03/20 02:38:42;;;;;;;4.13;1.80;;;;;;;7.15;87.10;102042.22;5036344;28;98063;-29
2023/03/20 02:41:26;;;;;;;3.63;1.80;;;;;;;7.10;87.24;102026.19;5036797;28;97841;-31
2023/03/20 02:44:00;;;;;;;2.13;1.48;;;;;;;7.11;87.51;102036.06;5037102;27;96536;-30
2023/03/20 02:46:44;;;;;;;3.40;1.95;;;;;;;7.12;87.23;102048.59;5036028;27;96716;-30
2023/03/20 02:49:29;;;;;;;2.55;1.70;;;;;;;7.09;87.35;102031.66;5036690;28;97744;-29
2023/03/20 02:52:08;;;;;;;1.95;1.38;;;;;;;7.12;87.53;102036.94;5034720;28;101230;-30
2023/03/20 02:55:00;;;;;;;2.10;1.50;;;;;;;7.10;87.19;102031.56;5036604;27;96589;-29
2023/03/20 02:57:55;;;;;;;2.40;1.70;;;;;;;7.12;87.09;102034.25;5036991;27;96646;-30
2023/03/20 03:00:35;;;;;;;3.10;1.55;;;;;;;7.11;86.90;102021.72;5036038;28;98843;-29
2023/03/20 03:03:09;;;;;;;2.65;1.67;;;;;;;7.09;87.09;102031.66;5034949;28;100845;-29
2023/03/20 03:05:52;;;;;;;1.33;1.23;;;;;;;7.02;87.34;102014.75;5036056;27;96637;-29
2023/03/20 03:08:21;;;;;;;3.42;1.67;;;;;;;7.03;86.96;102021.91;5035107;28;96708;-29
2023/03/20 03:11:05;;;;;;;3.13;1.73;;;;;;;6.98;87.55;102016.69;5034619;28;101219;-29
2023/03/20 03:13:34;;;;;;;2.75;1.48;;;;;;;7.05;87.50;102028.13;5036066;27;99515;-29
2023/03/20 03:16:04;;;;;;;2.38;1.38;;;;;;;7.05;87.06;102020.06;5034931;28;96653;-30
2023/03/20 03:18:34;;;;;;;2.33;1.60;;;;;;;7.04;87.11;102022.81;5035016;28;96689;-29
2023/03/20 03:21:02;;;;;;;3.05;1.67;;;;;;;6.93;87.13;102009.63;5034451;28;102063;-30
2023/03/20 03:23:36;;;;;;;3.90;1.70;;;;;;;6.90;87.17;102012.41;5036324;27;97341;-29
2023/03/20 03:26:04;;;;;;;3.10;1.70;;;;;;;6.90;87.34;102007.03;5035774;28;96836;-29
2023/03/20 03:28:55;;;;;;;1.45;1.35;;;;;;;6.89;87.48;102013.31;5034821;28;96651;-29
2023/03/20 03:31:23;;;;;;;3.23;1.73;;;;;;;6.93;87.74;102005.13;5032751;28;96918;-29
2023/03/20 03:33:52;;;;;;;3.92;1.75;;;;;;;6.94;87.46;102001.50;5034270;28;101135;-29
2023/03/20 03:36:55;;;;;;;1.80;1.20;;;;;;;6.97;87.12;101997.84;5034752;28;96607;-29
2023/03/20 03:39:36;;;;;;;3.15;1.83;;;;;;;6.95;87.44;101992.50;5036014;28;96664;-29
2023/03/20 03:42:29;;;;;;;2.15;1.45;;;;;;;6.93;87.53;101985.38;5034079;28;101211;-29
2023/03/20 03:45:47;;;;;;;1.67;1.40;;;;;;;6.92;87.50;101995.28;5034158;28;100949;-29
2023/03/20 03:48:25;;;;;;;2.25;1.48;;;;;;;6.90;87.83;101989.06;4976434;28;96672;-29
2023/03/20 03:50:54;;;;;;;2.50;1.38;;;;;;;6.90;87.80;101993.56;4977180;28;96703;-29
2023/03/20 03:53:24;;;;;;;2.67;1.52;;;;;;;6.89;87.61;101991.78;5013081;28;101052;-29
2023/03/20 03:55:56;;;;;;;2.85;1.75;;;;;;;6.88;87.87;102000.78;5033947;28;101007;-29
2023/03/20 03:58:31;;;;;;;3.08;1.70;;;;;;;6.84;87.60;101989.25;5033601;27;96711;-29
2023/03/20 04:00:58;;;;;;;2.22;1.48;;;;;;;6.80;87.95;101982.16;5034314;28;96757;-29
2023/03/20 04:03:29;;;;;;;1.65;1.35;;;;;;;6.81;88.01;101986.59;5033838;28;101001;-28
2023/03/20 04:05:57;;;;;;;2.38;1.50;;;;;;;6.80;87.89;101979.47;5033965;27;101141;-30
2023/03/20 04:08:22;;;;;;;1.40;1.23;;;;;;;6.81;87.87;101976.72;5034183;28;96714;-31
2023/03/20 04:10:48;;;;;;;3.33;1.63;;;;;;;6.81;88.32;101973.16;5035518;27;96893;-29
2023/03/20 04:13:15;;;;;;;2.22;1.63;;;;;;;6.78;88.64;101965.16;5034966;28;98139;-30
2023/03/20 04:15:41;;;;;;;2.05;1.67;;;;;;;6.84;88.01;101974.88;5035329;27;99736;-29
2023/03/20 04:18:07;;;;;;;2.53;1.67;;;;;;;6.78;88.51;101968.72;5034102;28;96591;-29
2023/03/20 04:20:32;;;;;;;5.00;1.50;;;;;;;6.80;88.53;101966.88;5035361;27;96785;-29
2023/03/20 04:22:58;;;;;;;1.40;1.15;;;;;;;6.85;88.30;101965.88;5034796;27;97864;-30
2023/03/20 04:25:25;;;;;;;2.53;1.73;;;;;;;6.83;88.62;101979.38;5034935;27;99111;-31
2023/03/20 04:27:51;;;;;;;5.70;2.13;;;;;;;6.84;88.21;101970.38;5033283;28;96696;-29
2023/03/20 04:30:16;;;;;;;2.03;1.73;;;;;;;6.84;88.59;101978.47;5035472;28;96699;-30
2023/03/20 04:32:42;;;;;;;3.80;1.90;;;;;;;6.88;88.12;101979.25;5035016;28;97906;-29
2023/03/20 04:35:07;;;;;;;2.80;1.83;;;;;;;6.90;88.17;101980.09;5034963;27;97343;-30
2023/03/20 04:37:33;;;;;;;3.60;1.27;;;;;;;6.88;88.16;101988.19;5033752;28;96769;-29
2023/03/20 04:39:58;;;;;;;3.50;2.05;;;;;;;6.87;88.08;101983.75;5035956;27;96762;-29
2023/03/20 04:42:24;;;;;;;5.43;1.58;;;;;;;6.84;88.28;101989.25;5034347;27;99753;-29
2023/03/20 04:44:49;;;;;;;3.08;1.75;;;;;;;6.77;88.87;101977.75;5034988;28;97872;-29
2023/03/20 04:47:15;;;;;;;4.30;1.58;;;;;;;6.75;89.24;101974.22;5034380;27;96626;-29
2023/03/20 04:49:40;;;;;;;3.30;1.70;;;;;;;6.76;89.44;101965.19;5033635;28;96873;-29
2023/03/20 04:52:06;;;;;;;3.63;2.00;;;;;;;6.76;89.05;101959.81;5034824;27;98081;-29
2023/03/20 04:54:31;;;;;;;3.13;1.58;;;;;;;6.80;89.06;101957.94;5034554;27;97335;-31
2023/03/20 04:56:56;;;;;;;3.63;2.03;;;;;;;6.78;89.52;101949.88;5034714;27;96709;-29
2023/03/20 04:59:22;;;;;;;2.63;1.70;;;;;;;6.79;89.45;101938.19;5034787;27;96839;-29
2023/03/20 05:01:47;;;;;;;3.50;1.88;;;;;;;6.78;88.63;101939.09;5034239;28;99183;-30
2023/03/20 05:04:13;;;;;;;3.97;2.20;;;;;;;6.78;89.01;101927.47;5034801;27;99238;-29
2023/03/20 05:06:38;;;;;;;3.58;2.17;;;;;;;6.77;89.24;101934.66;5035027;27;96752;-29
2023/03/20 05:09:04;;;;;;;3.88;1.90;;;;;;;6.79;89.41;101929.22;5035419;27;96771;-29
2023/03/20 05:11:30;;;;;;;5.28;1.70;;;;;;;6.76;89.26;101930.19;5035919;28;100909;-29
2023/03/20 05:13:55;;;;;;;3.05;1.95;;;;;;;6.77;89.21;101929.28;5037767;27;99251;-29
2023/03/20 05:16:21;;;;;;;4.18;1.70;;;;;;;6.78;89.02;101936.41;5038411;28;96421;-29
2023/03/20 05:18:46;;;;;;;3.83;2.30;;;;;;;6.75;89.54;101928.44;5038402;27;96759;-29
2023/03/20 05:21:11;;;;;;;3.20;1.70;;;;;;;6.76;90.03;101934.69;5037683;27;102437;-29
2023/03/20 05:23:37;;;;;;;3.55;2.30;;;;;;;6.78;89.09;101940.91;5038281;27;97273;-29
2023/03/20 05:26:02;;;;;;;2.97;1.77;;;;;;;6.77;89.55;101939.16;5037513;27;96816;-29
2023/03/20 05:28:29;;;;;;;4.38;1.90;;;;;;;6.76;89.27;101942.78;5036989;28;96806;-30
2023/03/20 05:30:55;;;;;;;2.55;1.92;;;;;;;6.75;89.56;101941.91;5036257;28;101253;-29
2023/03/20 05:33:20;;;;;;;4.72;1.75;;;;;;;6.74;88.94;101942.81;5037836;27;97337;-30
2023/03/20 05:35:46;;;;;;;4.13;2.33;;;;;;;6.76;89.38;101948.16;5037192;27;96489;-29
2023/03/20 05:38:11;;;;;;;6.25;1.95;;;;;;;6.72;89.36;101950.06;5038199;27;96756;-29
2023/03/20 05:40:37;;;;;;;2.95;2.17;;;;;;;6.74;89.35;101952.69;5037114;28;98441;-29
2023/03/20 05:43:02;;;;;;;2.80;1.90;;;;;;;6.72;89.53;101955.44;5037320;28;99417;-29
2023/03/20 05:45:28;;;;;;;3.05;2.08;;;;;;;6.69;90.33;101954.63;5037998;27;96440;-29
2023/03/20 05:47:53;;;;;;;2.78;1.38;;;;;;;6.66;90.46;101961.00;5037713;27;96664;-29
2023/03/20 05:50:19;;;;;;;2.10;1.77;;;;;;;6.70;89.88;101954.59;5037536;27;97807;-29
2023/03/20 05:52:48;;;;;;;5.88;2.53;;;;;;;6.73;89.98;101950.94;5036481;28;100854;-28
2023/03/20 05:55:14;;;;;;;3.28;2.05;;;;;;;6.77;89.42;101960.72;5035912;28;96691;-29
2023/03/20 05:57:39;;;;;;;3.10;2.03;;;;;;;6.78;89.58;101957.97;5037904;27;96762;-29
2023/03/20 06:00:07;;;;;;;3.08;1.80;;;;;;;6.76;89.62;101951.72;5036649;27;99413;-28
2023/03/20 06:02:32;;;;;;;3.65;1.67;;;;;;;6.76;89.91;101970.56;5037222;28;99242;-29
2023/03/20 06:04:58;;;;;;;5.63;1.75;;;;;;;6.74;89.67;101967.03;5037385;27;96527;-29
2023/03/20 06:07:23;;;;;;;2.00;1.55;;;;;;;6.78;89.57;101971.41;5037477;27;97129;-29
2023/03/20 06:09:49;;;;;;;3.47;1.50;;;;;;;6.76;89.74;101970.56;5036843;27;99157;-29
2023/03/20 06:12:15;;;;;;;2.67;1.60;;;;;;;6.78;89.67;101982.19;5036985;27;99543;-29
2023/03/20 06:14:40;;;;;;;3.25;1.42;;;;;;;6.77;89.49;101983.13;5037209;27;96616;-29
2023/03/20 06:17:05;;;;;;;1.90;1.42;;;;;;;6.76;89.99;101993.94;5037718;27;96790;-30
2023/03/20 06:19:31;;;;;;;5.00;1.85;;;;;;;6.78;89.61;101984.00;5037166;27;97919;-29
2023/03/20 06:21:56;;;;;;;2.58;1.20;;;;;;;6.80;89.91;101990.25;5036826;27;99321;-29
2023/03/20 06:24:22;;;;;;;2.00;1.48;;;;;;;6.78;89.67;101990.28;5036619;27;96614;-29
2023/03/20 06:26:47;;;;;;;2.92;1.50;;;;;;;6.81;89.87;101986.59;5035028;28;96902;-29
2023/03/20 06:29:12;;;;;;;2.47;1.70;;;;;;;6.84;89.13;101989.25;5036730;27;97934;-30
2023/03/20 06:31:38;;;;;;;9.98;1.80;;;;;;;6.87;89.19;101996.34;5036707;27;99262;-30
2023/03/20 06:34:03;;;;;;;4.82;1.58;;;;;;;6.89;89.41;101994.47;5035844;28;96568;-30
2023/03/20 06:36:29;;;;;;;2.25;1.60;;;;;;;6.89;89.18;102000.75;5037032;27;96824;-29
2023/03/20 06:38:55;;;;;;;2.47;1.45;;;;;;;6.88;89.71;102006.19;5036671;28;97900;-30
2023/03/20 06:41:21;;;;;;;2.10;1.05;;;;;;;6.85;89.58;101996.38;5035270;28;100949;-29
2023/03/20 06:43:46;;;;;;;2.97;1.48;;;;;;;6.92;89.92;102002.47;5035303;28;96557;-30
2023/03/20 06:46:11;;;;;;;5.82;1.98;;;;;;;6.91;89.31;102000.69;5036339;27;96992;-29
2023/03/20 06:48:37;;;;;;;2.25;1.05;;;;;;;6.91;88.78;101995.31;5034703;27;103072;-30
2023/03/20 06:51:02;;;;;;;4.35;1.40;;;;;;;6.93;89.08;102009.63;5035177;28;97929;-31
2023/03/20 06:53:28;;;;;;;2.13;1.08;;;;;;;6.92;88.85;102013.25;5035084;28;96670;-29
2023/03/20 06:55:53;;;;;;;3.25;1.55;;;;;;;6.92;89.09;102007.88;5036859;27;96793;-29
2023/03/20 06:58:19;;;;;;;1.92;1.38;;;;;;;6.88;88.59;102003.50;5036243;27;99994;-29
2023/03/20 07:00:45;;;;;;;1.33;1.13;;;;;;;6.91;88.99;102012.38;5034137;27;97934;-29
2023/03/20 07:03:10;;;;;;;1.17;0.77;;;;;;;6.93;89.06;102015.00;5034382;27;96952;-32
2023/03/20 07:05:37;;;;;;;5.38;1.30;;;;;;;6.89;88.57;102006.16;5034880;27;97299;-31
2023/03/20 07:08:03;;;;;;;1.38;1.02;;;;;;;6.93;88.79;102012.31;5032201;28;101202;-30
2023/03/20 07:10:28;;;;;;;3.42;1.55;;;;;;;6.93;88.93;102010.50;5032409;27;99025;-29
2023/03/20 07:12:54;;;;;;;3.63;1.40;;;;;;;6.93;89.06;102018.59;5033974;28;96975;-29
2023/03/20 07:15:20;;;;;;;2.42;1.17;;;;;;;6.95;88.89;102011.34;5036074;27;97032;-29
2023/03/20 07:17:46;;;;;;;0.95;0.80;;;;;;;6.92;89.65;102014.13;5035091;28;98247;-30
2023/03/20 07:20:11;;;;;;;2.67;1.38;;;;;;;6.95;89.53;102014.03;5035881;27;99234;-29
2023/03/20 07:22:38;;;;;;;1.15;0.93;;;;;;;6.96;89.55;102005.06;5036230;27;96647;-30
2023/03/20 07:25:04;;;;;;;3.10;0.88;;;;;;;6.95;89.71;102002.38;5034837;28;97270;-29
2023/03/20 07:27:30;;;;;;;1.80;0.98;;;;;;;7.01;89.58;102015.69;5033464;28;101523;-30
2023/03/20 07:29:55;;;;;;;2.28;1.27;;;;;;;7.04;89.58;102010.22;5036387;27;97762;-29
2023/03/20 07:32:21;;;;;;;1.75;1.20;;;;;;;7.08;89.16;102014.59;5035669;27;96652;-29
2023/03/20 07:34:47;;;;;;;1.50;1.02;;;;;;;7.10;89.32;102007.34;5036158;27;96708;-30
2023/03/20 07:37:12;;;;;;;5.03;1.45;;;;;;;7.11;88.96;102010.94;5033823;28;99258;-29
2023/03/20 07:39:38;;;;;;;4.32;1.58;;;;;;;7.11;89.02;102019.91;5035579;27;97970;-29
2023/03/20 07:42:03;;;;;;;1.83;1.10;;;;;;;7.08;89.54;102022.69;5036229;27;96446;-29
2023/03/20 07:44:29;;;;;;;2.63;1.05;;;;;;;7.07;89.13;102020.91;5036159;28;96757;-29
2023/03/20 07:46:54;;;;;;;1.33;1.02;;;;;;;7.09;89.71;102013.66;5035520;27;99125;-29
2023/03/20 07:49:20;;;;;;;1.52;1.02;;;;;;;7.15;89.21;102017.97;5035643;27;97793;-29
2023/03/20 07:51:46;;;;;;;2.35;1.20;;;;;;;7.13;89.42;102023.44;5035716;27;96465;-29
2023/03/20 07:54:13;;;;;;;5.32;0.90;;;;;;;7.13;89.57;102023.44;5034619;28;96847;-29
2023/03/20 07:56:39;;;;;;;6.03;1.35;;;;;;;7.11;89.92;102029.78;5034241;28;98951;-30
2023/03/20 07:59:04;;;;;;;4.18;1.25;;;;;;;7.10;90.41;102026.19;5035640;27;97491;-29
2023/03/20 08:01:29;;;;;;;2.88;1.58;;;;;;;7.08;90.13;102020.00;5035176;27;96508;-30
2023/03/20 08:03:55;;;;;;;1.42;0.95;;;;;;;7.08;90.95;102029.84;5035846;27;96834;-29
2023/03/20 08:06:20;;;;;;;1.02;0.75;;;;;;;7.10;90.85;102028.88;5034979;28;98785;-30
2023/03/20 08:08:46;;;;;;;2.78;1.55;;;;;;;7.11;90.00;102024.41;5035086;27;98788;-29
2023/03/20 08:11:12;;;;;;;1.25;0.90;;;;;;;7.09;90.92;102023.56;5035366;28;100376;-30
2023/03/20 08:13:37;;;;;;;4.18;1.20;;;;;;;7.06;90.58;102035.31;5034254;28;96737;-29
2023/03/20 08:16:02;;;;;;;3.70;1.15;;;;;;;7.06;91.04;102024.53;5035305;27;97933;-30
2023/03/20 08:18:28;;;;;;;5.13;1.48;;;;;;;7.05;91.40;102035.34;5035401;27;99458;-31
2023/03/20 08:20:54;;;;;;;1.65;1.08;;;;;;;7.02;92.04;102039.88;5035229;27;96476;-33
2023/03/20 08:23:19;;;;;;;5.53;1.33;;;;;;;6.99;91.96;102037.28;5035154;27;96774;-28
2023/03/20 08:25:48;;;;;;;3.65;1.33;;;;;;;6.96;92.47;102026.59;5034482;28;97965;-29
2023/03/20 08:28:15;;;;;;;1.60;0.95;;;;;;;6.98;91.95;102023.84;5033427;27;101006;-29
2023/03/20 08:30:40;;;;;;;3.72;0.93;;;;;;;6.99;91.96;102020.25;5033882;28;96634;-29
2023/03/20 08:33:06;;;;;;;1.50;1.00;;;;;;;6.99;91.67;102026.50;5035108;27;96794;-29
2023/03/20 08:35:31;;;;;;;2.15;1.02;;;;;;;6.97;92.35;102027.47;5034540;27;99244;-29
2023/03/20 08:37:56;;;;;;;1.60;1.02;;;;;;;7.05;92.87;102030.81;5034807;27;99392;-31
2023/03/20 08:40:22;;;;;;;3.47;0.77;;;;;;;7.10;93.60;102023.50;5034500;27;103394;-29
2023/03/20 08:42:47;;;;;;;1.50;1.10;;;;;;;7.13;93.35;102023.44;5035641;28;96876;-29
2023/03/20 08:45:13;;;;;;;2.75;1.33;;;;;;;7.15;92.71;102016.19;5033596;27;99270;-29
2023/03/20 08:47:39;;;;;;;2.50;1.20;;;;;;;7.17;92.22;102010.75;5033268;28;100883;-30
2023/03/20 08:50:04;;;;;;;1.70;1.00;;;;;;;7.19;93.14;102012.47;5034683;27;96515;-30
2023/03/20 08:52:30;;;;;;;3.03;1.55;;;;;;;7.23;92.59;102016.84;5034830;27;96595;-29
2023/03/20 08:54:55;;;;;;;0.73;0.55;;;;;;;7.25;93.24;102014.13;5034805;27;97781;-29
2023/03/20 08:57:20;;;;;;;5.60;1.42;;;;;;;7.26;93.26;102012.31;5034693;27;98275;-29
2023/03/20 08:59:46;;;;;;;1.75;0.90;;;;;;;7.30;92.91;102014.88;5035188;27;96622;-29
2023/03/20 09:02:11;;;;;;;4.55;1.17;;;;;;;7.32;92.99;102017.53;5034863;27;96880;-29
2023/03/20 09:04:36;;;;;;;1.58;0.65;;;;;;;7.35;93.14;102012.91;5034574;27;97944;-29
2023/03/20 09:07:02;;;;;;;1.83;1.10;;;;;;;7.35;93.28;102012.91;5034570;28;98061;-28
2023/03/20 09:09:28;;;;;;;0.93;0.80;;;;;;;7.27;93.97;102006.88;5034660;27;96726;-29
2023/03/20 09:11:58;;;;;;;3.28;1.15;;;;;;;7.30;94.06;102009.47;5033266;28;96810;-29
2023/03/20 09:14:25;;;;;;;1.67;1.40;;;;;;;7.32;93.70;102015.72;5032502;28;101096;-29
2023/03/20 09:16:51;;;;;;;2.33;1.27;;;;;;;7.32;93.67;102017.53;5032996;28;101110;-29
2023/03/20 09:19:17;;;;;;;1.38;1.10;;;;;;;7.36;94.18;102008.41;5034701;27;96441;-29
2023/03/20 09:21:43;;;;;;;1.83;1.13;;;;;;;7.47;94.42;102011.66;5033229;28;96898;-30
2023/03/20 09:24:08;;;;;;;1.02;0.88;;;;;;;7.48;94.68;102016.13;5032885;28;99440;-30
2023/03/20 09:26:34;;;;;;;1.85;1.48;;;;;;;7.44;94.36;102014.47;5033726;27;97808;-29
2023/03/20 09:28:59;;;;;;;3.92;1.30;;;;;;;7.51;94.55;102017.84;5034567;27;96735;-29
2023/03/20 09:31:24;;;;;;;1.70;1.15;;;;;;;7.50;94.88;102022.34;5035067;27;96828;-29
2023/03/20 09:33:50;;;;;;;1.77;1.08;;;;;;;7.52;94.81;102017.81;5033894;27;100187;-29
2023/03/20 09:36:15;;;;;;;2.15;1.65;;;;;;;7.55;94.52;102006.03;5034014;27;97895;-29
2023/03/20 09:38:41;;;;;;;3.47;1.80;;;;;;;7.59;94.55;102019.38;5034015;27;96478;-29
2023/03/20 09:41:17;;;;;;;2.42;1.45;;;;;;;7.67;94.44;102016.44;5033152;28;96794;-29
2023/03/20 09:43:49;;;;;;;3.17;1.90;;;;;;;7.76;94.03;102021.56;5032766;28;101229;-29
2023/03/20 09:46:32;;;;;;;3.63;1.40;;;;;;;7.86;94.12;102009.56;5032601;28;101368;-29
2023/03/20 09:49:12;;;;;;;1.75;1.25;;;;;;;7.88;93.92;102023.00;5032907;28;96614;-29
2023/03/20 09:52:12;;;;;;;2.15;1.15;;;;;;;7.85;94.70;102023.09;5034202;27;96637;-29
2023/03/20 09:54:46;;;;;;;2.55;1.55;;;;;;;7.85;93.48;102015.00;5010259;27;99219;-31
2023/03/20 09:57:27;;;;;;;2.25;1.35;;;;;;;7.92;94.03;102021.97;5036286;28;100730;-29
2023/03/20 09:59:58;;;;;;;2.97;1.38;;;;;;;7.89;93.22;102011.28;5036425;28;96543;-29
2023/03/20 10:03:01;;;;;;;2.83;1.83;;;;;;;7.94;92.47;102017.41;5036255;28;96825;-30
2023/03/20 10:05:31;;;;;;;1.60;1.33;;;;;;;7.93;92.86;102012.94;5032853;28;101116;-29
2023/03/20 10:08:02;;;;;;;2.58;1.27;;;;;;;7.93;93.18;102012.94;5035810;28;100773;-29
2023/03/20 10:11:01;;;;;;;1.83;1.67;;;;;;;7.99;92.95;102017.28;5036059;27;96726;-29
2023/03/20 10:13:29;;;;;;;2.10;1.40;;;;;;;8.05;93.44;102025.16;5034314;28;96880;-29
2023/03/20 10:16:08;;;;;;;1.48;1.23;;;;;;;8.05;92.60;102014.34;5036976;27;99373;-30
2023/03/20 10:18:38;;;;;;;3.03;2.33;;;;;;;8.07;92.04;102015.19;5035769;28;101150;-29
2023/03/20 10:21:12;;;;;;;3.25;1.50;;;;;;;8.09;92.54;102016.91;5035991;28;96675;-29
2023/03/20 10:23:46;;;;;;;1.42;1.17;;;;;;;8.08;92.79;102009.75;5036286;28;96675;-30
2023/03/20 10:26:20;;;;;;;2.35;1.73;;;;;;;8.14;92.30;102013.19;5036089;27;98992;-29
2023/03/20 10:28:56;;;;;;;4.53;2.20;;;;;;;8.19;92.14;102005.81;5037032;28;97864;-31
2023/03/20 10:31:27;;;;;;;5.40;1.92;;;;;;;8.26;92.54;101997.47;5036945;27;96736;-29
2023/03/20 10:34:07;;;;;;;3.23;1.77;;;;;;;8.23;91.89;101996.69;5037457;27;96770;-29
2023/03/20 10:36:45;;;;;;;3.53;2.00;;;;;;;8.24;91.82;102003.84;5036527;27;97942;-29
2023/03/20 10:39:23;;;;;;;3.15;1.83;;;;;;;8.28;92.02;102000.13;5037060;27;98373;-29
2023/03/20 10:42:01;;;;;;;4.78;2.30;;;;;;;8.28;91.96;101994.72;5037169;28;96539;-30
2023/03/20 10:44:32;;;;;;;3.03;1.45;;;;;;;8.28;92.43;101984.78;5036757;27;96703;-29
2023/03/20 10:47:00;;;;;;;3.60;2.15;;;;;;;8.27;91.87;101984.84;5035000;28;99897;-29
2023/03/20 10:49:35;;;;;;;2.90;1.60;;;;;;;8.26;92.39;101985.78;5035358;28;101386;-29
2023/03/20 10:52:12;;;;;;;3.75;1.67;;;;;;;8.25;92.61;101994.84;5035515;28;96528;-28
2023/03/20 10:54:41;;;;;;;1.13;1.00;;;;;;;8.21;92.58;101990.47;5036987;28;96467;-30
2023/03/20 10:57:14;;;;;;;4.70;1.73;;;;;;;8.22;92.67;101979.63;5034641;28;101109;-29
2023/03/20 10:59:50;;;;;;;3.22;1.77;;;;;;;8.22;92.75;101963.44;5035068;27;101406;-29
2023/03/20 11:02:18;;;;;;;3.00;2.05;;;;;;;8.26;92.30;101975.00;5035203;28;96718;-29
2023/03/20 11:04:43;;;;;;;2.08;1.55;;;;;;;8.28;92.29;101967.72;5035180;28;96873;-29
2023/03/20 11:07:31;;;;;;;2.88;1.88;;;;;;;8.36;92.26;101962.06;5035379;27;97880;-30
2023/03/20 11:10:03;;;;;;;2.78;1.52;;;;;;;8.48;92.07;101975.16;5034472;27;100732;-29
2023/03/20 11:12:32;;;;;;;5.85;2.42;;;;;;;8.52;91.66;101960.63;5036434;27;96435;-29
2023/03/20 11:15:02;;;;;;;6.93;1.88;;;;;;;8.62;91.83;101961.19;5035350;28;96922;-28
2023/03/20 11:17:28;;;;;;;2.35;1.60;;;;;;;8.69;91.21;101958.19;5034849;28;101025;-30
2023/03/20 11:20:03;;;;;;;3.38;1.52;;;;;;;8.65;90.95;101950.25;5036003;28;99091;-29
2023/03/20 11:22:28;;;;;;;4.45;1.75;;;;;;;8.63;90.99;101952.16;5034500;27;96685;-29
2023/03/20 11:25:04;;;;;;;2.72;1.35;;;;;;;8.64;91.32;101954.78;5034910;27;96680;-29
2023/03/20 11:27:32;;;;;;;3.55;1.77;;;;;;;8.66;91.63;101942.13;5033883;28;101274;-29
2023/03/20 11:30:00;;;;;;;4.50;1.63;;;;;;;8.72;91.53;101943.69;5034463;27;100789;-30
2023/03/20 11:32:39;;;;;;;3.10;1.52;;;;;;;8.76;91.23;101948.06;5034880;28;96644;-29
2023/03/20 11:35:19;;;;;;;2.63;1.73;;;;;;;8.78;91.22;101951.59;5036100;27;96635;-29
2023/03/20 11:37:47;;;;;;;2.88;1.65;;;;;;;8.88;91.10;101941.34;5035609;27;98996;-29
2023/03/20 11:40:29;;;;;;;4.60;1.92;;;;;;;8.89;91.05;101946.69;5034593;28;101006;-29
2023/03/20 11:43:11;;;;;;;2.53;1.77;;;;;;;8.86;91.77;101941.38;5034727;28;96585;-30
2023/03/20 11:45:38;;;;;;;3.15;1.48;;;;;;;8.83;91.30;101935.22;5036120;28;96620;-29